Wetterdaten: Woche 26.12.16 - 01.01.17 (KW52)
Datum Zeit Temp. A. Feuchte A. Luftdruck Regen Wind Richtung Taupunkt Windchill Windben
26.12.2016 00:00 10,0 C 76 % 1024,4 hPa 0,0 l/m 11,5 km/h N 6,0 C 6,8 C 31,0 km/h
26.12.2016 01:00 10,1 C 77 % 1024,2 hPa 0,0 l/m 8,9 km/h N 6,1 C 8,4 C 25,3 km/h
26.12.2016 02:00 10,6 C 76 % 1024,2 hPa 0,0 l/m 14,3 km/h N 6,5 C 6,2 C 37,8 km/h
26.12.2016 03:00 10,6 C 76 % 1024,4 hPa 0,0 l/m 17,3 km/h N 6,6 C 5,0 C 39,4 km/h
26.12.2016 04:00 10,4 C 77 % 1023,9 hPa 0,0 l/m 20,7 km/h N 6,5 C 3,6 C 47,1 km/h
26.12.2016 05:00 10,7 C 77 % 1024,2 hPa 0,0 l/m 18,5 km/h N 6,9 C 4,7 C 40,6 km/h
26.12.2016 06:00 10,5 C 77 % 1024,6 hPa 0,0 l/m 15,2 km/h N 6,7 C 5,7 C 35,4 km/h
26.12.2016 07:00 10,4 C 78 % 1024,8 hPa 0,0 l/m 12,5 km/h N 6,7 C 6,8 C 32,2 km/h
26.12.2016 08:00 10,3 C 79 % 1025,3 hPa 0,0 l/m 7,8 km/h N 6,8 C 9,3 C 22,1 km/h
26.12.2016 09:00 10,6 C 78 % 1025,8 hPa 0,0 l/m 7,9 km/h N 6,9 C 9,5 C 20,5 km/h
26.12.2016 10:00 11,1 C 76 % 1025,9 hPa 0,0 l/m 8,6 km/h N 7,1 C 9,7 C 23,7 km/h
26.12.2016 11:00 12,1 C 73 % 1025,1 hPa 0,0 l/m 10,5 km/h N 7,3 C 9,7 C 24,9 km/h
26.12.2016 12:00 12,7 C 72 % 1024,6 hPa 0,0 l/m 7,7 km/h N 7,8 C 11,9 C 22,9 km/h
26.12.2016 13:00 12,6 C 72 % 1024,3 hPa 0,0 l/m 9,6 km/h N 7,7 C 10,7 C 26,9 km/h
26.12.2016 14:00 12,3 C 74 % 1024,1 hPa 0,0 l/m 9,2 km/h N 7,8 C 10,7 C 25,0 km/h
26.12.2016 15:00 11,9 C 77 % 1023,4 hPa 0,0 l/m 8,4 km/h N 7,9 C 10,6 C 21,7 km/h
26.12.2016 16:00 11,9 C 78 % 1023,1 hPa 0,0 l/m 8,9 km/h N 8,1 C 10,3 C 21,3 km/h
26.12.2016 17:00 11,8 C 75 % 1023,6 hPa 0,0 l/m 10,3 km/h N 7,5 C 9,4 C 28,6 km/h
26.12.2016 18:00 11,6 C 72 % 1024,1 hPa 0,0 l/m 13,2 km/h N 6,8 C 8,0 C 35,0 km/h
26.12.2016 19:00 11,5 C 72 % 1024,7 hPa 0,0 l/m 9,5 km/h N 6,6 C 9,5 C 27,0 km/h
26.12.2016 20:00 10,8 C 73 % 1025,0 hPa 0,0 l/m 9,5 km/h N 6,2 C 8,8 C 28,2 km/h
26.12.2016 21:00 10,7 C 73 % 1025,2 hPa 0,0 l/m 10,4 km/h N 6,1 C 8,2 C 35,8 km/h
26.12.2016 22:00 10,3 C 74 % 1025,6 hPa 0,8 l/m 11,8 km/h N 5,9 C 7,0 C 29,8 km/h
26.12.2016 23:00 7,5 C 80 % 1026,8 hPa 1,0 l/m 7,5 km/h N 4,3 C 6,3 C 22,5 km/h
27.12.2016 00:00 7,1 C 77 % 1027,4 hPa 0,0 l/m 5,9 km/h N 3,3 C 7,0 C 19,7 km/h
27.12.2016 01:00 6,7 C 70 % 1028,6 hPa 0,0 l/m 6,0 km/h N 1,6 C 6,4 C 19,3 km/h
27.12.2016 02:00 6,1 C 65 % 1029,2 hPa 0,0 l/m 8,3 km/h N -0,0 C 4,5 C 22,1 km/h
27.12.2016 03:00 5,8 C 67 % 1028,9 hPa 0,0 l/m 12,5 km/h N 0,3 C 1,5 C 33,0 km/h
27.12.2016 04:00 5,3 C 65 % 1028,8 hPa 0,3 l/m 16,2 km/h N -0,7 C -1,1 C 39,8 km/h
27.12.2016 05:00 5,1 C 66 % 1029,4 hPa 0,0 l/m 14,5 km/h N -0,7 C -0,5 C 37,0 km/h
27.12.2016 06:00 4,8 C 66 % 1029,1 hPa 0,0 l/m 16,1 km/h N -1,1 C -1,7 C 41,4 km/h
27.12.2016 07:00 4,6 C 62 % 1029,1 hPa 0,0 l/m 18,1 km/h N -2,0 C -2,9 C 47,9 km/h
27.12.2016 08:00 4,6 C 62 % 1029,4 hPa 0,0 l/m 20,6 km/h N -2,0 C -4,0 C 47,1 km/h
27.12.2016 09:00 4,7 C 62 % 1030,1 hPa 0,0 l/m 23,3 km/h N -1,9 C -4,8 C 51,9 km/h
27.12.2016 10:00 5,2 C 62 % 1030,8 hPa 0,0 l/m 17,1 km/h N -1,5 C -1,7 C 43,8 km/h
27.12.2016 11:00 5,3 C 62 % 1031,1 hPa 0,0 l/m 12,8 km/h N -1,4 C 0,7 C 37,4 km/h
27.12.2016 12:00 5,6 C 63 % 1030,2 hPa 0,0 l/m 18,0 km/h N -1,0 C -1,5 C 47,1 km/h
27.12.2016 13:00 5,6 C 64 % 1029,4 hPa 0,0 l/m 21,0 km/h N -0,8 C -2,8 C 49,5 km/h
27.12.2016 14:00 5,5 C 63 % 1028,5 hPa 0,0 l/m 17,6 km/h N -0,9 C -1,5 C 47,9 km/h
27.12.2016 15:00 5,5 C 64 % 1028,6 hPa 0,0 l/m 21,3 km/h N -0,7 C -3,0 C 53,1 km/h
27.12.2016 16:00 5,6 C 64 % 1028,8 hPa 0,0 l/m 19,7 km/h N -0,8 C -2,3 C 47,9 km/h
27.12.2016 17:00 5,5 C 66 % 1029,4 hPa 0,0 l/m 20,6 km/h N -0,3 C -2,7 C 47,5 km/h
27.12.2016 18:00 5,3 C 70 % 1030,4 hPa 0,0 l/m 17,8 km/h N 0,2 C -1,8 C 45,5 km/h
27.12.2016 19:00 5,6 C 68 % 1030,5 hPa 0,0 l/m 19,0 km/h N 0,1 C -1,9 C 42,3 km/h
27.12.2016 20:00 5,7 C 68 % 1031,3 hPa 0,0 l/m 16,4 km/h N 0,2 C -0,7 C 35,8 km/h
27.12.2016 21:00 5,6 C 69 % 1031,8 hPa 0,0 l/m 14,0 km/h N 0,3 C 0,4 C 33,4 km/h
27.12.2016 22:00 5,7 C 69 % 1031,9 hPa 0,0 l/m 15,6 km/h N 0,4 C -0,4 C 35,8 km/h
27.12.2016 23:00 5,9 C 69 % 1032,3 hPa 0,0 l/m 15,1 km/h N 0,6 C 0,1 C 33,4 km/h
28.12.2016 00:00 5,4 C 73 % 1031,8 hPa 0,0 l/m 15,8 km/h N 0,9 C -0,8 C 38,6 km/h
28.12.2016 01:00 5,5 C 73 % 1031,7 hPa 0,0 l/m 16,2 km/h N 1,1 C -0,9 C 38,6 km/h
28.12.2016 02:00 5,4 C 74 % 1031,6 hPa 0,0 l/m 16,3 km/h N 1,2 C -1,0 C 37,4 km/h
28.12.2016 03:00 4,3 C 80 % 1031,1 hPa 1,8 l/m 13,4 km/h N 1,2 C -0,8 C 32,6 km/h
28.12.2016 04:00 4,1 C 83 % 1030,1 hPa 1,6 l/m 12,8 km/h N 1,4 C -0,7 C 31,4 km/h
28.12.2016 05:00 3,9 C 83 % 1031,3 hPa 4,4 l/m 11,4 km/h N 1,3 C 0,0 C 28,6 km/h
28.12.2016 06:00 3,4 C 84 % 1031,9 hPa 1,6 l/m 7,1 km/h N 0,9 C 2,6 C 20,5 km/h
28.12.2016 07:00 3,6 C 84 % 1032,5 hPa 2,1 l/m 7,6 km/h N 1,0 C 2,5 C 19,3 km/h
28.12.2016 08:00 3,8 C 83 % 1033,2 hPa 1,8 l/m 10,1 km/h N 1,2 C 0,7 C 27,0 km/h
28.12.2016 09:00 4,0 C 84 % 1033,8 hPa 0,3 l/m 9,0 km/h N 1,5 C 1,9 C 23,3 km/h
28.12.2016 10:00 3,8 C 84 % 1034,3 hPa 0,5 l/m 8,8 km/h N 1,3 C 1,8 C 24,5 km/h
28.12.2016 11:00 4,5 C 83 % 1034,0 hPa 0,0 l/m 9,9 km/h N 1,8 C 1,6 C 24,9 km/h
28.12.2016 12:00 5,1 C 82 % 1033,5 hPa 0,0 l/m 9,8 km/h N 2,2 C 2,3 C 25,8 km/h
28.12.2016 13:00 5,0 C 78 % 1033,4 hPa 0,0 l/m 10,9 km/h N 1,4 C 1,5 C 30,2 km/h
28.12.2016 14:00 4,8 C 70 % 1033,3 hPa 0,0 l/m 12,1 km/h N -0,2 C 0,5 C 29,4 km/h
28.12.2016 15:00 4,6 C 66 % 1033,8 hPa 0,0 l/m 10,4 km/h N -1,2 C 1,4 C 26,5 km/h
28.12.2016 16:00 4,3 C 63 % 1034,3 hPa 0,0 l/m 9,8 km/h N -2,1 C 1,4 C 24,9 km/h
28.12.2016 17:00 3,7 C 64 % 1035,1 hPa 0,0 l/m 9,0 km/h N -2,4 C 1,5 C 24,5 km/h
28.12.2016 18:00 3,3 C 67 % 1036,1 hPa 0,0 l/m 7,8 km/h N -2,3 C 2,0 C 20,5 km/h
28.12.2016 19:00 2,8 C 69 % 1037,0 hPa 0,0 l/m 7,2 km/h N -2,3 C 2,0 C 19,7 km/h
28.12.2016 20:00 2,5 C 69 % 1037,9 hPa 0,0 l/m 5,7 km/h N -2,6 C 2,5 C 18,1 km/h
28.12.2016 21:00 2,0 C 71 % 1038,6 hPa 0,0 l/m 4,6 km/h N -2,8 C 2,0 C 13,7 km/h
28.12.2016 22:00 1,5 C 72 % 1039,3 hPa 0,0 l/m 4,6 km/h N -3,0 C 1,5 C 13,7 km/h
28.12.2016 23:00 1,2 C 71 % 1039,6 hPa 0,0 l/m 4,8 km/h N -3,4 C 1,2 C 15,7 km/h
29.12.2016 00:00 0,7 C 71 % 1039,7 hPa 0,0 l/m 2,0 km/h N -3,9 C 0,7 C 9,6 km/h
29.12.2016 01:00 0,4 C 74 % 1039,6 hPa 0,0 l/m 1,8 km/h N -3,7 C 0,4 C 9,3 km/h
29.12.2016 02:00 0,3 C 75 % 1039,7 hPa 0,0 l/m 4,9 km/h N -3,5 C 0,3 C 13,7 km/h
29.12.2016 03:00 0,2 C 77 % 1039,9 hPa 0,0 l/m 3,4 km/h N -3,5 C 0,2 C 11,3 km/h
29.12.2016 04:00 0,1 C 79 % 1040,1 hPa 0,0 l/m 4,7 km/h N -3,1 C 0,1 C 13,3 km/h
29.12.2016 05:00 -0,1 C 79 % 1040,8 hPa 0,0 l/m 1,8 km/h N -3,3 C -0,1 C 9,3 km/h
29.12.2016 06:00 -0,2 C 79 % 1041,0 hPa 0,0 l/m 4,8 km/h N -3,4 C -0,2 C 12,0 km/h
29.12.2016 07:00 -0,4 C 79 % 1041,1 hPa 0,0 l/m 3,3 km/h N -3,6 C -0,4 C 10,9 km/h
29.12.2016 08:00 -0,5 C 81 % 1041,5 hPa 0,0 l/m 5,1 km/h N -3,4 C -0,6 C 13,7 km/h
29.12.2016 09:00 0,4 C 80 % 1042,0 hPa 0,0 l/m 6,4 km/h N -2,7 C 0,1 C 16,1 km/h
29.12.2016 10:00 1,1 C 77 % 1042,2 hPa 0,0 l/m 9,3 km/h N -2,6 C -1,6 C 20,9 km/h
29.12.2016 11:00 1,6 C 71 % 1042,2 hPa 0,0 l/m 9,5 km/h N -3,1 C -1,2 C 22,9 km/h
29.12.2016 12:00 2,1 C 69 % 1041,9 hPa 0,0 l/m 8,0 km/h N -3,1 C 0,6 C 18,5 km/h
29.12.2016 13:00 2,4 C 68 % 1041,3 hPa 0,0 l/m 8,2 km/h N -2,9 C 0,7 C 19,3 km/h
29.12.2016 14:00 2,4 C 69 % 1040,8 hPa 0,0 l/m 7,7 km/h N -2,8 C 1,2 C 18,9 km/h
29.12.2016 15:00 2,1 C 69 % 1040,7 hPa 0,0 l/m 5,8 km/h N -3,1 C 1,9 C 18,9 km/h
29.12.2016 16:00 1,2 C 71 % 1040,8 hPa 0,0 l/m 1,3 km/h N -3,6 C 1,2 C 8,4 km/h
29.12.2016 17:00 0,3 C 72 % 1041,2 hPa 0,0 l/m 0,2 km/h N -4,2 C 0,3 C 3,2 km/h
29.12.2016 18:00 -0,1 C 75 % 1041,3 hPa 0,0 l/m 1,5 km/h N -4,0 C -0,1 C 9,6 km/h
29.12.2016 19:00 -0,3 C 74 % 1041,6 hPa 0,0 l/m 0,4 km/h N -4,4 C -0,3 C 6,8 km/h
29.12.2016 20:00 -0,7 C 75 % 1041,5 hPa 0,0 l/m 0,4 km/h N -4,6 C -0,7 C 4,4 km/h
29.12.2016 21:00 -0,8 C 73 % 1041,5 hPa 0,0 l/m 0,4 km/h N -5,0 C -0,8 C 2,8 km/h
29.12.2016 22:00 -2,1 C 76 % 1041,4 hPa 0,0 l/m 0,0 km/h N -5,8 C -2,1 C 0,8 km/h
29.12.2016 23:00 -2,6 C 79 % 1041,3 hPa 0,0 l/m 0,1 km/h N -5,7 C -2,6 C 2,0 km/h
30.12.2016 00:00 -3,5 C 79 % 1041,3 hPa 0,0 l/m 0,0 km/h N -6,5 C -3,5 C 0,0 km/h
30.12.2016 01:00 -4,2 C 80 % 1041,1 hPa 0,0 l/m 0,0 km/h N -7,0 C -4,2 C 0,0 km/h
30.12.2016 02:00 -4,7 C 81 % 1041,2 hPa 0,0 l/m 0,0 km/h N -7,4 C -4,7 C 0,4 km/h
30.12.2016 03:00 -5,1 C 82 % 1041,0 hPa 0,0 l/m 0,0 km/h N -7,6 C -5,1 C 0,0 km/h
30.12.2016 04:00 -5,6 C 82 % 1040,8 hPa 0,0 l/m 0,0 km/h N -8,1 C -5,6 C 0,0 km/h
30.12.2016 05:00 -6,2 C 83 % 1040,8 hPa 0,0 l/m 0,0 km/h N -8,6 C -6,2 C 0,4 km/h
30.12.2016 06:00 -6,6 C 83 % 1040,7 hPa 0,0 l/m 0,0 km/h N -9,0 C -6,6 C 0,0 km/h
30.12.2016 07:00 -7,0 C 83 % 1040,8 hPa 0,0 l/m 0,0 km/h N -9,4 C -7,0 C 0,0 km/h
30.12.2016 08:00 -7,2 C 84 % 1040,8 hPa 0,0 l/m 0,0 km/h N -9,4 C -7,2 C 0,0 km/h
30.12.2016 09:00 -5,4 C 84 % 1040,7 hPa 0,0 l/m 0,0 km/h N -7,7 C -5,4 C 0,0 km/h
30.12.2016 10:00 -3,3 C 84 % 1040,5 hPa 0,0 l/m 0,2 km/h N -5,6 C -3,3 C 2,8 km/h
30.12.2016 11:00 -1,6 C 84 % 1039,9 hPa 0,0 l/m 0,0 km/h N -4,0 C -1,6 C 1,6 km/h
30.12.2016 12:00 0,5 C 78 % 1039,4 hPa 0,0 l/m 0,0 km/h N -2,9 C 0,5 C 2,0 km/h
30.12.2016 13:00 1,6 C 72 % 1038,7 hPa 0,0 l/m 0,1 km/h N -2,8 C 1,6 C 3,2 km/h
30.12.2016 14:00 2,3 C 72 % 1038,4 hPa 0,0 l/m 0,0 km/h N -2,2 C 2,3 C 0,4 km/h
30.12.2016 15:00 2,4 C 70 % 1038,3 hPa 0,0 l/m 0,0 km/h N -2,5 C 2,4 C 0,0 km/h
30.12.2016 16:00 0,3 C 72 % 1038,1 hPa 0,0 l/m 0,0 km/h N -4,1 C 0,3 C 0,0 km/h
30.12.2016 17:00 -1,9 C 76 % 1038,2 hPa 0,0 l/m 0,0 km/h N -5,6 C -1,9 C 0,0 km/h
30.12.2016 18:00 -3,4 C 80 % 1038,1 hPa 0,0 l/m 0,0 km/h N -6,4 C -3,4 C 0,0 km/h
30.12.2016 19:00 -4,4 C 81 % 1038,0 hPa 0,0 l/m 0,0 km/h N -7,1 C -4,4 C 0,0 km/h
30.12.2016 20:00 -4,9 C 82 % 1038,1 hPa 0,0 l/m 0,0 km/h N -7,5 C -4,9 C 0,0 km/h
30.12.2016 21:00 -5,4 C 83 % 1038,6 hPa 0,0 l/m 0,0 km/h N -7,8 C -5,4 C 0,0 km/h
30.12.2016 22:00 -6,1 C 83 % 1038,4 hPa 0,0 l/m 0,0 km/h N -8,6 C -6,1 C 0,0 km/h
30.12.2016 23:00 -6,3 C 84 % 1037,7 hPa 0,0 l/m 0,0 km/h N -8,6 C -6,3 C 0,8 km/h
31.12.2016 00:00 -6,7 C 84 % 1037,3 hPa 0,0 l/m 0,0 km/h N -8,9 C -6,7 C 0,0 km/h
31.12.2016 01:00 -7,1 C 84 % 1036,9 hPa 0,0 l/m 0,0 km/h N -9,3 C -7,1 C 0,0 km/h
31.12.2016 02:00 -7,5 C 84 % 1036,6 hPa 0,0 l/m 0,0 km/h N -9,7 C -7,5 C 0,0 km/h
31.12.2016 03:00 -8,0 C 84 % 1036,3 hPa 0,0 l/m 0,0 km/h N -10,2 C -8,0 C 0,0 km/h
31.12.2016 04:00 -8,4 C 84 % 1035,9 hPa 0,0 l/m 0,0 km/h N -10,6 C -8,4 C 0,0 km/h
31.12.2016 05:00 -8,6 C 84 % 1035,8 hPa 0,0 l/m 0,0 km/h N -10,8 C -8,6 C 0,0 km/h
31.12.2016 06:00 -8,9 C 85 % 1036,2 hPa 0,0 l/m 0,0 km/h N -11,0 C -8,9 C 0,0 km/h
31.12.2016 07:00 -9,1 C 85 % 1035,8 hPa 0,0 l/m 0,0 km/h N -11,2 C -9,1 C 0,0 km/h
31.12.2016 08:00 -9,0 C 85 % 1035,8 hPa 0,0 l/m 0,0 km/h N -11,1 C -9,0 C 0,0 km/h
31.12.2016 09:00 -7,3 C 84 % 1035,7 hPa 0,0 l/m 0,0 km/h N -9,5 C -7,3 C 0,0 km/h
31.12.2016 10:00 -4,6 C 84 % 1035,7 hPa 0,0 l/m 0,0 km/h N -6,9 C -4,6 C 0,0 km/h
31.12.2016 11:00 -2,4 C 84 % 1034,8 hPa 0,0 l/m 0,0 km/h N -4,7 C -2,4 C 0,4 km/h
31.12.2016 12:00 -0,1 C 83 % 1033,9 hPa 0,0 l/m 0,0 km/h N -2,5 C -0,1 C 1,6 km/h
31.12.2016 13:00 1,7 C 74 % 1033,1 hPa 0,0 l/m 0,0 km/h N -2,6 C 1,7 C 2,0 km/h
31.12.2016 14:00 2,8 C 66 % 1032,4 hPa 0,0 l/m 0,0 km/h N -2,9 C 2,8 C 0,8 km/h
31.12.2016 15:00 2,9 C 63 % 1032,1 hPa 0,0 l/m 0,0 km/h N -3,4 C 2,9 C 0,8 km/h
31.12.2016 16:00 0,6 C 66 % 1032,1 hPa 0,0 l/m 0,0 km/h N -4,9 C 0,6 C 0,0 km/h
31.12.2016 17:00 -1,9 C 72 % 1032,2 hPa 0,0 l/m 0,0 km/h N -6,2 C -1,9 C 0,0 km/h
31.12.2016 18:00 -3,4 C 78 % 1031,9 hPa 0,0 l/m 0,0 km/h N -6,8 C -3,4 C 0,0 km/h
31.12.2016 19:00 -4,4 C 81 % 1031,8 hPa 0,0 l/m 0,0 km/h N -7,2 C -4,4 C 0,0 km/h
31.12.2016 20:00 -5,1 C 82 % 1031,6 hPa 0,0 l/m 0,0 km/h N -7,7 C -5,1 C 0,0 km/h
31.12.2016 21:00 -5,9 C 82 % 1031,0 hPa 0,0 l/m 0,0 km/h N -8,4 C -5,9 C 0,0 km/h
31.12.2016 22:00 -6,5 C 83 % 1030,5 hPa 0,0 l/m 0,0 km/h N -8,9 C -6,5 C 0,0 km/h
31.12.2016 23:00 -7,0 C 83 % 1029,9 hPa 0,0 l/m 0,0 km/h N -9,3 C -7,0 C 0,0 km/h
01.01.2017 00:00 -7,2 C 84 % 1028,9 hPa 0,0 l/m 0,0 km/h N -9,4 C -7,2 C 0,0 km/h
01.01.2017 01:00 -7,3 C 84 % 1028,3 hPa 0,0 l/m 0,0 km/h N -9,6 C -7,3 C 0,0 km/h
01.01.2017 02:00 -7,7 C 84 % 1027,8 hPa 0,0 l/m 0,0 km/h N -10,0 C -7,7 C 0,0 km/h
01.01.2017 03:00 -8,1 C 84 % 1027,3 hPa 0,0 l/m 0,0 km/h N -10,3 C -8,1 C 0,0 km/h
01.01.2017 04:00 -8,2 C 84 % 1026,9 hPa 0,0 l/m 0,0 km/h N -10,3 C -8,2 C 0,0 km/h
01.01.2017 05:00 -8,5 C 85 % 1026,4 hPa 0,0 l/m 0,0 km/h N -10,6 C -8,5 C 0,0 km/h
01.01.2017 06:00 -8,7 C 85 % 1026,1 hPa 0,0 l/m 0,0 km/h N -10,8 C -8,7 C 0,0 km/h
01.01.2017 07:00 -9,0 C 85 % 1025,8 hPa 0,0 l/m 0,0 km/h N -11,0 C -9,0 C 0,0 km/h
01.01.2017 08:00 -9,1 C 85 % 1025,9 hPa 0,0 l/m 0,0 km/h N -11,1 C -9,1 C 0,0 km/h
01.01.2017 09:00 -7,7 C 84 % 1025,8 hPa 0,0 l/m 0,0 km/h N -9,9 C -7,7 C 0,0 km/h
01.01.2017 10:00 -5,2 C 84 % 1025,4 hPa 0,0 l/m 0,0 km/h N -7,5 C -5,2 C 0,0 km/h
01.01.2017 11:00 -3,7 C 84 % 1024,5 hPa 0,0 l/m 0,1 km/h N -6,0 C -3,7 C 2,8 km/h
01.01.2017 12:00 -2,7 C 84 % 1023,7 hPa 0,0 l/m 0,0 km/h N -5,0 C -2,7 C 1,2 km/h
01.01.2017 13:00 -2,5 C 84 % 1023,1 hPa 0,0 l/m 0,1 km/h N -4,9 C -2,5 C 2,0 km/h
01.01.2017 14:00 -2,9 C 84 % 1022,6 hPa 0,0 l/m 0,0 km/h N -5,2 C -2,9 C 2,0 km/h
01.01.2017 15:00 -3,6 C 84 % 1022,4 hPa 0,0 l/m 0,0 km/h N -5,9 C -3,6 C 0,8 km/h
01.01.2017 16:00 -4,1 C 84 % 1022,0 hPa 0,0 l/m 0,0 km/h N -6,4 C -4,1 C 0,4 km/h
01.01.2017 17:00 -4,1 C 84 % 1021,8 hPa 0,0 l/m 0,0 km/h N -6,4 C -4,1 C 0,4 km/h
01.01.2017 18:00 -4,5 C 84 % 1021,8 hPa 0,0 l/m 0,1 km/h N -6,8 C -4,5 C 2,4 km/h
01.01.2017 19:00 -5,4 C 84 % 1022,0 hPa 0,0 l/m 0,0 km/h N -7,6 C -5,4 C 0,8 km/h
01.01.2017 20:00 -5,8 C 85 % 1022,0 hPa 0,0 l/m 0,0 km/h N -8,0 C -5,8 C 0,0 km/h
01.01.2017 21:00 -6,1 C 85 % 1021,8 hPa 0,0 l/m 0,0 km/h N -8,2 C -6,1 C 1,2 km/h
01.01.2017 22:00 -6,5 C 85 % 1021,4 hPa 0,0 l/m 0,0 km/h N -8,6 C -6,5 C 0,4 km/h
01.01.2017 23:00 -6,8 C 85 % 1021,3 hPa 0,0 l/m 0,1 km/h N -9,0 C -6,8 C 1,6 km/h
Min-Datum _ 31.12.16 27.12.16 01.01.17 - 29.12.16 - 31.12.16 31.12.16 29.12.16
_ Min-Zeit 07:45 11:00 23:45 - 20:30 - 07:45 07:00 21:15
Minimum _ -9,2 C 60 % 1021,2 hPa - 0,0 km/h - -11,3 C -9,1 C 0,0 km/h
Max-Datum _ 26.12.16 31.12.16 29.12.16 28.12.16 27.12.16 - 26.12.16 26.12.16 27.12.16
_ Max-Zeit 13:00 06:30 10:00 05:15 09:30 - 16:00 12:30 15:30
Maximum _ 12,9 C 85 % 1042,3 hPa 4,4 l/m 25,8 km/h
N
- 8,2 C 12,7 C 61,2 km/h
N
Durchschnitt _ 0,9 C 76 % 1032,5 hPa #16,1 l/m 5,9 km/h N -2,8 C -0,8 C 15,4 km/h